PWSweather.com
Personal Weather Stations
Station Observations
PWSLORIS
The Farm At Fox Bay, Loris, SC 29569

The Farm At Fox BayLoris, SC 29569

Lat: 34.067097, Lon: -78.86907

Elevation: 108

Station Type: Davis Vantage Pro2 with 24 hr. FARS and solar

http://www.lorisweather.com

Latest ConditionsUpdated 9:15:01 AM EST Tuesday, Dec 18, 2018
Currently Today's Max Today's Min Today's Average
Temperature 49.9°F9.9°C 49.9°F9.9°C 38.2°F3.4°C 41.9°F5.5°C
Dew Point 36.9°F2.7°C 40.6°F4.8°C 34.7°F1.5°C 37.1°F2.8°C
Winds 2.3 mph NNE3.7 kmh NNE 2.3 mph -3.7 kmh - - 0.2 mph 0.3 kmh
Wind Gusts 4.6 mph7.4 kmh 4.6 mph7.4 kmh - -
Humidity 61% 88% 61% 83%
Pressure 30.14 in1020.7 mb 30.14 in1020.7 mb 30.00 in1015.9 mb -
Hour Temp Dew Point Humidity Winds Wind Gusts Pressure Precip Precip Rate Daily Precip Total
09:15 AM 49.9°F9.9°C 36.9°F2.7°C 61% 2.3 mph NNE3.7 kmh NNE 4.6 mph7.4 kmh 30.14 in1020.7 mb - 0.00 in0.0 mm 0.00 in0.0 mm
09:00 AM 48.7°F9.3°C 37.9°F3.3°C 66% 1.2 mph NE1.9 kmh NE 1.2 mph1.9 kmh 30.13 in1020.3 mb - 0.00 in0.0 mm 0.00 in0.0 mm
08:45 AM 47.4°F8.6°C 37.3°F2.9°C 68% 1.2 mph NE1.9 kmh NE 3.5 mph5.6 kmh 30.12 in1020.0 mb - 0.00 in0.0 mm 0.00 in0.0 mm
08:30 AM 45.5°F7.5°C 36.6°F2.6°C 71% 1.2 mph NE1.9 kmh NE 3.5 mph5.6 kmh 30.10 in1019.3 mb - 0.00 in0.0 mm 0.00 in0.0 mm
08:15 AM 44.1°F6.7°C 36.0°F2.2°C 73% Calm Calm -- 30.09 in1019.0 mb - 0.00 in0.0 mm 0.00 in0.0 mm
08:00 AM 43.6°F6.4°C 36.2°F2.3°C 75% Calm Calm -- 30.09 in1019.0 mb - 0.00 in0.0 mm 0.00 in0.0 mm
07:45 AM 42.7°F5.9°C 36.0°F2.2°C 77% Calm Calm -- 30.08 in1018.6 mb - 0.00 in0.0 mm 0.00 in0.0 mm
07:30 AM 42.4°F5.8°C 36.0°F2.2°C 78% Calm Calm -- 30.07 in1018.3 mb - 0.00 in0.0 mm 0.00 in0.0 mm
07:15 AM 40.9°F4.9°C 35.5°F1.9°C 81% Calm Calm -- 30.07 in1018.3 mb - 0.00 in0.0 mm 0.00 in0.0 mm
07:00 AM 40.8°F4.9°C 36.4°F2.4°C 84% Calm Calm -- 30.06 in1017.9 mb - 0.00 in0.0 mm 0.00 in0.0 mm
06:45 AM 39.7°F4.3°C 36.5°F2.5°C 88% Calm Calm -- 30.05 in1017.6 mb - 0.00 in0.0 mm 0.00 in0.0 mm
06:30 AM 38.4°F3.6°C 34.9°F1.6°C 87% Calm Calm -- 30.04 in1017.3 mb - 0.00 in0.0 mm 0.00 in0.0 mm
06:15 AM 38.2°F3.4°C 34.7°F1.5°C 87% Calm Calm -- 30.04 in1017.3 mb - 0.00 in0.0 mm 0.00 in0.0 mm
06:00 AM 38.3°F3.5°C 34.8°F1.6°C 87% Calm Calm -- 30.04 in1017.3 mb - 0.00 in0.0 mm 0.00 in0.0 mm
05:45 AM 38.5°F3.6°C 35.0°F1.7°C 87% Calm Calm -- 30.03 in1016.9 mb - 0.00 in0.0 mm 0.00 in0.0 mm
05:30 AM 39.0°F3.9°C 35.5°F1.9°C 87% Calm Calm -- 30.03 in1016.9 mb - 0.00 in0.0 mm 0.00 in0.0 mm
05:15 AM 39.9°F4.4°C 36.6°F2.6°C 88% Calm Calm -- 30.03 in1016.9 mb - 0.00 in0.0 mm 0.00 in0.0 mm
05:00 AM 39.8°F4.3°C 36.6°F2.6°C 88% Calm Calm -- 30.03 in1016.9 mb - 0.00 in0.0 mm 0.00 in0.0 mm
04:45 AM 40.1°F4.5°C 36.5°F2.5°C 87% Calm Calm -- 30.02 in1016.6 mb - 0.00 in0.0 mm 0.00 in0.0 mm
04:30 AM 40.2°F4.6°C 36.6°F2.6°C 87% Calm Calm -- 30.02 in1016.6 mb - 0.00 in0.0 mm 0.00 in0.0 mm
04:15 AM 40.3°F4.6°C 36.8°F2.7°C 87% Calm Calm -- 30.02 in1016.6 mb - 0.00 in0.0 mm 0.00 in0.0 mm
04:00 AM 40.9°F4.9°C 37.3°F2.9°C 87% Calm Calm -- 30.02 in1016.6 mb - 0.00 in0.0 mm 0.00 in0.0 mm
03:45 AM 41.4°F5.2°C 38.1°F3.4°C 88% Calm Calm -- 30.02 in1016.6 mb - 0.00 in0.0 mm 0.00 in0.0 mm
03:30 AM 41.0°F5.0°C 37.4°F3.0°C 87% Calm Calm -- 30.02 in1016.6 mb - 0.00 in0.0 mm 0.00 in0.0 mm
03:15 AM 41.4°F5.2°C 37.8°F3.2°C 87% Calm Calm -- 30.02 in1016.6 mb - 0.00 in0.0 mm 0.00 in0.0 mm
03:00 AM 41.5°F5.3°C 37.9°F3.3°C 87% Calm Calm -- 30.01 in1016.3 mb - 0.00 in0.0 mm 0.00 in0.0 mm
02:45 AM 41.4°F5.2°C 37.8°F3.2°C 87% Calm Calm -- 30.01 in1016.3 mb - 0.00 in0.0 mm 0.00 in0.0 mm
02:30 AM 41.4°F5.2°C 37.9°F3.3°C 87% Calm Calm -- 30.01 in1016.3 mb - 0.00 in0.0 mm 0.00 in0.0 mm
02:15 AM 41.4°F5.2°C 37.8°F3.2°C 87% Calm Calm -- 30.01 in1016.3 mb - 0.00 in0.0 mm 0.00 in0.0 mm
02:00 AM 41.4°F5.2°C 37.8°F3.2°C 87% Calm Calm -- 30.01 in1016.3 mb - 0.00 in0.0 mm 0.00 in0.0 mm
01:45 AM 41.3°F5.2°C 37.8°F3.2°C 87% Calm Calm -- 30.01 in1016.3 mb - 0.00 in0.0 mm 0.00 in0.0 mm
01:30 AM 42.2°F5.7°C 38.6°F3.7°C 87% Calm Calm -- 30.01 in1016.3 mb - 0.00 in0.0 mm 0.00 in0.0 mm
01:15 AM 42.9°F6.1°C 39.3°F4.1°C 87% Calm Calm -- 30.01 in1016.3 mb - 0.00 in0.0 mm 0.00 in0.0 mm
01:00 AM 42.8°F6.0°C 39.2°F4.0°C 87% Calm Calm -- 30.00 in1015.9 mb - 0.00 in0.0 mm 0.00 in0.0 mm
12:45 AM 43.0°F6.1°C 39.4°F4.1°C 87% Calm Calm -- 30.01 in1016.3 mb - 0.00 in0.0 mm 0.00 in0.0 mm
12:30 AM 43.4°F6.3°C 39.8°F4.3°C 87% Calm Calm -- 30.01 in1016.3 mb - 0.00 in0.0 mm 0.00 in0.0 mm
12:00 AM 44.2°F6.8°C 40.6°F4.8°C 87% Calm Calm -- 30.01 in1016.3 mb - 0.00 in0.0 mm 0.00 in0.0 mm